Flight Track Log - Related Links

Times and Time Zones

All times are in EST time to prevent confusion due to time zone crossing. See the DAL1981 flight status page for this flight to view local times or setup timezone preferences in your user account.

Time Position Orientation Groundspeed Altitude Reporting Facility
EST Latitude Longitude Course Direction KTS MPH feet Rate Location/Type
Mon 04:23:42 PM 38.7333 -121.5833 72° East 166 191 1,400  Level Northern Cal TRACON
Mon 04:24:42 PM 38.7500 -121.5333 67° East 233 268 2,000 1,800 Climbing Northern Cal TRACON
Mon 04:25:42 PM 38.7333 -121.4333 102° East 272 313 5,000 2,900 Climbing Northern Cal TRACON
Mon 04:26:00 PM 38.8572 -121.1542 73° East  Level Estimated
Mon 04:26:42 PM 38.7333 -121.3333 90° East 299 344 7,800  Level Northern Cal TRACON
Mon 04:27:00 PM 38.9107 -121.0082 77° East  Level Estimated
Mon 04:28:00 PM 38.9641 -120.8620 76° East  Level Estimated
Mon 04:28:49 PM 38.7361 -121.0908 89° East 361 415 10,500  Level Oakland Center
Mon 04:29:00 PM 39.0173 -120.7156 72° East  Level Estimated
Mon 04:29:50 PM 38.7342 -120.9436 91° East 400 460 12,400  Level Oakland Center
Mon 04:30:52 PM 38.7308 -120.7936 92° East 415 478 14,200 1,707 Climbing Oakland Center
Mon 04:31:53 PM 38.7636 -120.6506 74° East 436 502 15,900 1,561 Climbing Oakland Center
Mon 04:32:55 PM 38.8431 -120.5336 49° Northeast 437 503 17,400 1,355 Climbing Oakland Center
Mon 04:33:57 PM 38.9244 -120.4131 49° Northeast 445 512 18,700 1,415 Climbing Oakland Center
Mon 04:34:58 PM 39.0231 -120.2658 49° Northeast 453 521 20,300 1,317 Climbing Oakland Center
Mon 04:36:00 PM 39.1067 -120.1389 50° Northeast 464 534 21,400 1,122 Climbing Oakland Center
Mon 04:37:01 PM 39.1931 -120.0119 49° Northeast 474 545 22,600 976 Climbing Oakland Center
Mon 04:38:03 PM 39.2814 -119.8800 49° Northeast 484 557 23,400 878 Climbing Oakland Center
Mon 04:39:04 PM 39.3719 -119.7467 49° Northeast 491 565 24,400 927 Climbing Oakland Center
Mon 04:40:06 PM 39.4603 -119.6103 50° Northeast 492 566 25,300 823 Climbing Oakland Center
Mon 04:41:08 PM 39.5508 -119.4717 50° Northeast 499 574 26,100 1,073 Climbing Oakland Center
Mon 04:42:09 PM 39.6403 -119.3328 50° Northeast 501 577 27,500 1,317 Climbing Oakland Center
Mon 04:43:11 PM 39.7292 -119.1961 50° Northeast 494 568 28,800 1,220 Climbing Oakland Center
Mon 04:44:12 PM 39.8331 -119.0339 50° Northeast 485 558 30,000 1,024 Climbing Oakland Center
Mon 04:45:14 PM 39.9203 -118.8978 50° Northeast 485 558 30,900 927 Climbing Oakland Center
Mon 04:46:15 PM 40.0067 -118.7631 50° Northeast 483 556 31,900 976 Climbing Oakland Center
Mon 04:47:17 PM 40.0897 -118.6272 51° Northeast 479 551 32,900 537 Climbing Oakland Center
Mon 04:48:18 PM 40.1544 -118.4744 61° Northeast 479 551 33,000 49 Climbing Oakland Center
Mon 04:49:19 PM 40.2019 -118.2986 70° East 504 580 33,000  Level Oakland Center
Mon 04:50:21 PM 40.2492 -118.1239 70° East 506 582 33,000  Level Oakland Center
Mon 04:51:22 PM 40.3000 -117.9372 70° East 504 580 33,000  Level Oakland Center
Mon 04:52:17 PM 40.3369 -117.7989 71° East 505 581 33,000  Level Salt Lake Center
Mon 04:53:19 PM 40.3900 -117.6056 70° East 505 581 33,000  Level Salt Lake Center
Mon 04:54:21 PM 40.4342 -117.4383 71° East 505 581 33,000  Level Salt Lake Center
Mon 04:55:22 PM 40.4861 -117.2428 71° East 506 582 33,000  Level Salt Lake Center
Mon 04:56:24 PM 40.5303 -117.0736 71° East 505 581 33,000  Level Salt Lake Center
Mon 04:57:26 PM 40.5772 -116.9044 70° East 506 582 33,000  Level Salt Lake Center
Mon 04:58:28 PM 40.6489 -116.7208 63° Northeast 498 573 33,000  Level Salt Lake Center
Mon 04:59:29 PM 40.7097 -116.5633 63° Northeast 500 575 33,000  Level Salt Lake Center
Mon 05:00:31 PM 40.7706 -116.4072 63° Northeast 500 575 33,000  Level Salt Lake Center
Mon 05:01:33 PM 40.8411 -116.2258 63° Northeast 497 572 33,000  Level Salt Lake Center
Mon 05:02:34 PM 40.9017 -116.0653 63° Northeast 504 580 33,000  Level Salt Lake Center
Mon 05:03:36 PM 40.9714 -115.8825 63° Northeast 500 575 33,000  Level Salt Lake Center
Mon 05:04:38 PM 41.0317 -115.7261 63° Northeast 498 573 33,000  Level Salt Lake Center
Mon 05:05:39 PM 41.0997 -115.5397 64° Northeast 502 578 33,000  Level Salt Lake Center
Mon 05:06:41 PM 41.1597 -115.3833 63° Northeast 499 574 33,000  Level Salt Lake Center
Mon 05:07:43 PM 41.2186 -115.2236 64° Northeast 500 575 33,000  Level Salt Lake Center
Mon 05:08:44 PM 41.2881 -115.0372 64° Northeast 503 579 33,000  Level Salt Lake Center
Mon 05:09:46 PM 41.3464 -114.8769 64° Northeast 504 580 33,000  Level Salt Lake Center
Mon 05:10:48 PM 41.4061 -114.7139 64° Northeast 504 580 33,000  Level Salt Lake Center
Mon 05:11:50 PM 41.4781 -114.5144 64° Northeast 499 574 33,000  Level Salt Lake Center
Mon 05:12:51 PM 41.5392 -114.3469 64° Northeast 502 578 33,000  Level Salt Lake Center
Mon 05:13:53 PM 41.5992 -114.1786 64° Northeast 502 578 33,000  Level Salt Lake Center
Mon 05:14:55 PM 41.6589 -114.0114 64° Northeast 500 575 33,000  Level Salt Lake Center
Mon 05:15:56 PM 41.7194 -113.8436 64° Northeast 501 577 33,000  Level Salt Lake Center
Mon 05:16:58 PM 41.7794 -113.6742 65° Northeast 503 579 33,000  Level Salt Lake Center
Mon 05:18:00 PM 41.8383 -113.5033 65° Northeast 504 580 33,000  Level Salt Lake Center
Mon 05:19:02 PM 41.8972 -113.3350 65° Northeast 501 577 33,000  Level Salt Lake Center
Mon 05:20:04 PM 41.9686 -113.1294 65° Northeast 506 582 33,000  Level Salt Lake Center
Mon 05:21:05 PM 42.0269 -112.9606 65° Northeast 500 575 33,000  Level Salt Lake Center
Mon 05:22:07 PM 42.0853 -112.7900 65° Northeast 501 577 33,000  Level Salt Lake Center
Mon 05:23:09 PM 42.1422 -112.6197 66° East 499 574 33,000  Level Salt Lake Center
Mon 05:24:11 PM 42.1997 -112.4486 66° East 500 575 33,000  Level Salt Lake Center
Mon 05:25:13 PM 42.2567 -112.2792 66° East 498 573 33,000  Level Salt Lake Center
Mon 05:26:14 PM 42.3122 -112.1056 67° East 503 579 33,000  Level Salt Lake Center
Mon 05:27:16 PM 42.3789 -111.8986 66° East 501 577 33,000  Level Salt Lake Center
Mon 05:28:18 PM 42.4353 -111.7258 66° East 502 578 33,000  Level Salt Lake Center
Mon 05:29:20 PM 42.4897 -111.5539 67° East 500 575 33,000  Level Salt Lake Center
Mon 05:30:22 PM 42.5447 -111.3817 67° East 498 573 33,000  Level Salt Lake Center
Mon 05:31:24 PM 42.5986 -111.2103 67° East 496 571 33,000  Level Salt Lake Center
Mon 05:32:25 PM 42.6533 -111.0383 67° East 496 571 33,000  Level Salt Lake Center
Mon 05:33:27 PM 42.7164 -110.8353 67° East 498 573 33,000  Level Salt Lake Center
Mon 05:34:29 PM 42.7686 -110.6661 67° East 505 581 33,000  Level Salt Lake Center
Mon 05:35:31 PM 42.8186 -110.5031 67° East 495 570 33,000  Level Salt Lake Center
Mon 05:36:33 PM 42.8775 -110.3103 67° East 493 567 33,000  Level Salt Lake Center
Mon 05:37:35 PM 42.9275 -110.1425 68° East 497 572 33,000  Level Salt Lake Center
Mon 05:38:37 PM 42.9861 -109.9489 67° East 497 572 33,000  Level Salt Lake Center
Mon 05:39:38 PM 43.0397 -109.7675 68° East 499 574 33,000  Level Salt Lake Center
Mon 05:40:40 PM 43.0917 -109.5925 68° East 499 574 33,000  Level Salt Lake Center
Mon 05:41:42 PM 43.1422 -109.4194 68° East 493 567 33,000  Level Salt Lake Center
Mon 05:42:44 PM 43.1928 -109.2483 68° East 489 563 33,000  Level Salt Lake Center
Mon 05:43:46 PM 43.2431 -109.0744 68° East 491 565 33,000  Level Salt Lake Center
Mon 05:44:47 PM 43.3033 -108.8667 68° East 492 566 33,000  Level Salt Lake Center
Mon 05:45:49 PM 43.3531 -108.6883 69° East 500 575 33,000  Level Salt Lake Center
Mon 05:46:51 PM 43.4025 -108.5150 69° East 493 567 33,000  Level Salt Lake Center
Mon 05:47:53 PM 43.4522 -108.3408 68° East 491 565 33,000  Level Salt Lake Center
Mon 05:48:54 PM 43.5031 -108.1661 68° East 494 568 33,000  Level Salt Lake Center
Mon 05:49:56 PM 43.5539 -107.9919 68° East 493 567 33,000  Level Salt Lake Center
Mon 05:50:58 PM 43.6158 -107.7847 68° East 491 565 33,000  Level Salt Lake Center
Mon 05:52:00 PM 43.6669 -107.6083 68° East 496 571 33,000  Level Salt Lake Center
Mon 05:53:01 PM 43.7169 -107.4314 69° East 498 573 33,000  Level Salt Lake Center
Mon 05:54:03 PM 43.7678 -107.2564 68° East 494 568 33,000  Level Salt Lake Center
Mon 05:55:05 PM 43.8169 -107.0814 69° East 494 568 33,000  Level Salt Lake Center
Mon 05:56:07 PM 43.8717 -106.8928 68° East 493 567 33,000  Level Salt Lake Center
Mon 05:57:08 PM 43.9189 -106.7225 69° East 493 567 33,000  Level Salt Lake Center
Mon 05:58:10 PM 43.9778 -106.5142 68° East 499 574 33,000  Level Salt Lake Center
Mon 05:59:14 PM 44.0294 -106.3208 70° East 494 568 33,000  Level Denver Center
Mon 06:00:16 PM 44.0733 -106.1464 71° East 497 572 33,000  Level Denver Center
Mon 06:01:18 PM 44.1178 -105.9708 71° East 500 575 33,000  Level Denver Center
Mon 06:02:20 PM 44.1689 -105.7647 71° East 501 577 33,000  Level Denver Center
Mon 06:03:35 PM 44.2258 -105.5317 71° East 500 575 33,000  Level Denver Center
Mon 06:04:37 PM 44.2669 -105.3567 72° East 498 573 33,000  Level Denver Center
Mon 06:05:38 PM 44.3164 -105.1533 71° East 497 572 33,000  Level Denver Center
Mon 06:06:40 PM 44.3583 -104.9781 71° East 497 572 33,000  Level Denver Center
Mon 06:07:42 PM 44.3994 -104.8044 72° East 494 568 33,000  Level Denver Center
Mon 06:08:44 PM 44.4472 -104.6025 72° East 490 564 33,000  Level Denver Center
Mon 06:09:46 PM 44.4878 -104.4292 72° East 489 563 33,000  Level Denver Center
Mon 06:10:48 PM 44.5342 -104.2283 72° East 486 559 33,000  Level Denver Center
Mon 06:11:50 PM 44.5731 -104.0578 72° East 482 555 33,000  Level Denver Center
Mon 06:12:52 PM 44.6186 -103.8578 72° East 481 554 33,000  Level Denver Center
Mon 06:13:54 PM 44.6567 -103.6856 73° East 481 554 33,000  Level Denver Center
Mon 06:14:56 PM 44.6978 -103.5031 72° East 482 555 33,000  Level Denver Center
Mon 06:15:58 PM 44.7375 -103.3242 73° East 483 556 33,000  Level Denver Center
Mon 06:17:12 PM 44.7758 -103.1439 73° East 482 555 33,000  Level Denver Center
Mon 06:18:14 PM 44.8317 -102.8922 73° East 481 554 33,000  Level Denver Center
Mon 06:19:16 PM 44.8700 -102.7122 73° East 481 554 33,000  Level Denver Center
Mon 06:20:18 PM 44.9083 -102.5344 73° East 478 550 33,000  Level Denver Center
Mon 06:21:20 PM 44.9458 -102.3575 73° East 472 543 33,000  Level Denver Center
Mon 06:22:22 PM 44.9769 -102.1783 76° East 470 541 33,000  Level Denver Center
Mon 06:23:24 PM 44.9678 -101.9853 94° East 489 563 33,000  Level Denver Center
Mon 06:24:26 PM 44.9567 -101.7511 94° East 498 573 33,000  Level Denver Center
Mon 06:25:28 PM 44.9486 -101.5586 93° East 495 570 33,000  Level Denver Center
Mon 06:26:35 PM 44.9394 -101.3650 94° East 496 571 33,000  Level Minneapolis Center
Mon 06:27:36 PM 44.9303 -101.1706 94° East 498 573 33,000  Level Minneapolis Center
Mon 06:28:38 PM 44.9200 -100.9375 93° East 499 574 33,000  Level Minneapolis Center
Mon 06:29:39 PM 44.9097 -100.7422 94° East 501 577 33,000  Level Minneapolis Center
Mon 06:30:41 PM 44.8969 -100.5481 95° East 500 575 33,000  Level Minneapolis Center
Mon 06:31:43 PM 44.8864 -100.3539 94° East 501 577 33,000  Level Minneapolis Center
Mon 06:32:44 PM 44.8750 -100.1606 95° East 501 577 33,000  Level Minneapolis Center
Mon 06:33:46 PM 44.8611 -99.9314 95° East 501 577 33,000  Level Minneapolis Center
Mon 06:34:47 PM 44.8497 -99.7403 95° East 501 577 33,000  Level Minneapolis Center
Mon 06:35:49 PM 44.8372 -99.5472 95° East 501 577 33,000  Level Minneapolis Center
Mon 06:36:51 PM 44.8256 -99.3533 95° East 501 577 33,000  Level Minneapolis Center
Mon 06:37:52 PM 44.8117 -99.1586 96° East 502 578 33,000  Level Minneapolis Center
Mon 06:38:54 PM 44.7989 -98.9647 95° East 501 577 33,000  Level Minneapolis Center
Mon 06:39:55 PM 44.7819 -98.7347 96° East 496 571 33,000  Level Minneapolis Center
Mon 06:40:57 PM 44.7678 -98.5433 96° East 494 568 33,000  Level Minneapolis Center
Mon 06:41:59 PM 44.7553 -98.3714 96° East 493 567 33,000  Level Minneapolis Center
Mon 06:43:00 PM 44.7436 -98.1792 95° East 493 567 33,000 -49 Level Minneapolis Center
Mon 06:44:02 PM 44.7253 -97.9503 96° East 492 566 32,900 -537 Descending Minneapolis Center
Mon 06:45:03 PM 44.7092 -97.7583 97° East 494 568 31,900 -927 Descending Minneapolis Center
Mon 06:46:05 PM 44.6931 -97.5639 97° East 500 575 31,000 -435 Descending Minneapolis Center
Mon 06:47:07 PM 44.6756 -97.3703 97° East 501 577 31,000  Level Minneapolis Center
Mon 06:48:08 PM 44.6611 -97.1847 96° East 480 552 31,000  Level Minneapolis Center
Mon 06:49:10 PM 44.6483 -97.0044 96° East 467 537 31,000  Level Minneapolis Center
Mon 06:50:12 PM 44.6867 -96.8503 71° East 418 481 31,000  Level Minneapolis Center
Mon 06:51:13 PM 44.7308 -96.7014 67° East 412 474 31,000  Level Minneapolis Center
Mon 06:52:15 PM 44.7325 -96.5269 89° East 458 527 31,000  Level Minneapolis Center
Mon 06:53:16 PM 44.6919 -96.3064 104° East 482 555 31,000 -390 Level Minneapolis Center
Mon 06:54:18 PM 44.6589 -96.1261 104° East 475 547 30,200 -871 Descending Minneapolis Center
Mon 06:55:20 PM 44.6278 -95.9642 105° East 437 503 29,200 -927 Descending Minneapolis Center
Mon 06:56:21 PM 44.5992 -95.8097 105° East 411 473 28,300 -927 Descending Minneapolis Center
Mon 06:57:23 PM 44.5683 -95.6456 105° East 429 494 27,300 -968 Descending Minneapolis Center
Mon 06:58:25 PM 44.5353 -95.4747 105° East 449 517 26,300 -919 Descending Minneapolis Center
Mon 06:59:27 PM 44.5022 -95.3056 105° East 450 518 25,400 -919 Descending Minneapolis Center
Mon 07:00:29 PM 44.4728 -95.1394 104° East 444 511 24,400 -1,065 Descending Minneapolis Center
Mon 07:01:31 PM 44.5078 -94.9628 74° East 399 459 23,200 -1,024 Descending Minneapolis Center
Mon 07:02:32 PM 44.5414 -94.8214 72° East 387 445 22,300 -1,512 Descending Minneapolis Center
Mon 07:03:34 PM 44.5739 -94.6806 72° East 382 440 20,100 -2,177 Descending Minneapolis Center
Mon 07:04:36 PM 44.6022 -94.5586 72° East 376 433 17,800 -2,537 Descending Minneapolis Center
Mon 07:05:37 PM 44.6378 -94.4017 72° East 350 403 14,900 -2,146 Descending Minneapolis Center
Mon 07:06:39 PM 44.6664 -94.2750 72° East 341 392 13,400 -1,805 Descending Minneapolis Center
Mon 07:07:40 PM 44.6939 -94.1525 72° East 330 380 11,200 -1,171 Descending Minneapolis Center
Mon 07:08:42 PM 44.7214 -94.0317 72° East 325 374 11,000 -97 Descending Minneapolis Center
Mon 07:09:44 PM 44.7481 -93.9119 73° East 323 372 11,000  Level Minneapolis Center
Mon 07:10:45 PM 44.7747 -93.7914 73° East 323 372 11,000 -293 Level Minneapolis Center
Mon 07:11:47 PM 44.8014 -93.6725 72° East 319 367 10,400 -629 Descending Minneapolis Center
Mon 07:12:49 PM 44.8242 -93.5664 73° East 287 330 9,700 -780 Descending Minneapolis Center
Mon 07:13:50 PM 44.8481 -93.4583 73° East 242 278 8,800 -829 Descending Minneapolis Center
Mon 07:14:52 PM 44.8619 -93.3739 77° East 224 258 8,000 -677 Descending Minneapolis Center
Mon 07:15:54 PM 44.8078 -93.3428 158° South 231 266 7,400 -878 Descending Minneapolis Center
Mon 07:16:55 PM 44.7467 -93.3386 177° South 225 259 6,200 -1,171 Descending Minneapolis Center
Mon 07:17:57 PM 44.6850 -93.3283 173° South 229 264 5,000 -823 Descending Minneapolis Center
Mon 07:18:59 PM 44.6561 -93.2528 118° Southeast 183 211 4,500 -488 Descending Minneapolis Center
Mon 07:20:00 PM 44.6861 -93.2100 45° Northeast 176 203 4,000 -341 Descending Minneapolis Center
Mon 07:21:02 PM 44.7311 -93.2017 North 167 192 3,800 -532 Descending Minneapolis Center
Mon 07:22:04 PM 44.7731 -93.2125 350° North 163 188 2,900 -878 Descending Minneapolis Center
Mon 07:23:05 PM 44.8142 -93.2233 349° North 130 150 2,000 -780 Descending Minneapolis Center
Mon 07:24:07 PM 44.8483 -93.2322 350° North 126 145 1,300 -677 Descending Minneapolis Center

Login

Don't have an account? Register now (free) for customized features, flight alerts, and more!